sensor_id;sensor_type;location;lat;lon;timestamp;pressure;altitude;pressure_sealevel;temperature;humidity
35892;BME280;21993;42.672;23.296;2023-01-28T00:01:40;94082.38;;;2.92;72.28
35892;BME280;21993;42.672;23.296;2023-01-28T00:04:05;94077.81;;;2.96;72.34
35892;BME280;21993;42.672;23.296;2023-01-28T00:06:30;94085.72;;;2.81;71.78
35892;BME280;21993;42.672;23.296;2023-01-28T00:08:56;94101.97;;;2.83;72.35
35892;BME280;21993;42.672;23.296;2023-01-28T00:11:21;94093.28;;;2.72;72.81
35892;BME280;21993;42.672;23.296;2023-01-28T00:13:53;94099.81;;;2.90;72.22
35892;BME280;21993;42.672;23.296;2023-01-28T00:16:19;94097.84;;;2.81;71.93
35892;BME280;21993;42.672;23.296;2023-01-28T00:18:47;94116.09;;;2.54;72.67
35892;BME280;21993;42.672;23.296;2023-01-28T00:21:14;94119.91;;;2.74;72.25
35892;BME280;21993;42.672;23.296;2023-01-28T00:23:41;94105.72;;;2.79;71.83
35892;BME280;21993;42.672;23.296;2023-01-28T00:26:12;94114.72;;;2.74;72.34
35892;BME280;21993;42.672;23.296;2023-01-28T00:28:39;94109.97;;;2.80;72.62
35892;BME280;21993;42.672;23.296;2023-01-28T00:31:11;94115.97;;;2.81;72.24
35892;BME280;21993;42.672;23.296;2023-01-28T00:33:38;94124.88;;;2.90;71.64
35892;BME280;21993;42.672;23.296;2023-01-28T00:36:04;94118.78;;;2.91;71.35
35892;BME280;21993;42.672;23.296;2023-01-28T00:38:31;94123.44;;;2.86;71.63
35892;BME280;21993;42.672;23.296;2023-01-28T00:41:18;94129.75;;;2.94;71.93
35892;BME280;21993;42.672;23.296;2023-01-28T00:43:46;94124.78;;;2.91;71.01
35892;BME280;21993;42.672;23.296;2023-01-28T00:46:12;94123.66;;;2.95;71.46
35892;BME280;21993;42.672;23.296;2023-01-28T00:48:39;94123.66;;;2.95;71.88
35892;BME280;21993;42.672;23.296;2023-01-28T00:51:05;94129.75;;;2.94;71.62
35892;BME280;21993;42.672;23.296;2023-01-28T00:53:31;94121.38;;;3.03;71.20
35892;BME280;21993;42.672;23.296;2023-01-28T00:55:57;94133.91;;;2.97;71.41
35892;BME280;21993;42.672;23.296;2023-01-28T00:58:22;94124.78;;;2.91;71.91
35892;BME280;21993;42.672;23.296;2023-01-28T01:00:50;94134.00;;;2.82;71.75
35892;BME280;21993;42.672;23.296;2023-01-28T01:03:17;94134.66;;;2.86;71.66
35892;BME280;21993;42.672;23.296;2023-01-28T01:05:43;94136.00;;;2.79;72.43
35892;BME280;21993;42.672;23.296;2023-01-28T01:08:08;94125.19;;;2.85;71.79
35892;BME280;21993;42.672;23.296;2023-01-28T01:10:33;94126.13;;;2.84;71.43
35892;BME280;21993;42.672;23.296;2023-01-28T01:12:59;94142.50;;;2.85;72.04
35892;BME280;21993;42.672;23.296;2023-01-28T01:15:25;94127.38;;;2.78;71.59
35892;BME280;21993;42.672;23.296;2023-01-28T01:17:50;94136.91;;;2.91;71.64
35892;BME280;21993;42.672;23.296;2023-01-28T01:20:19;94139.91;;;2.85;72.16
35892;BME280;21993;42.672;23.296;2023-01-28T01:22:44;94136.31;;;2.87;71.58
35892;BME280;21993;42.672;23.296;2023-01-28T01:25:12;94143.34;;;2.85;71.75
35892;BME280;21993;42.672;23.296;2023-01-28T01:27:38;94135.66;;;2.83;71.71
35892;BME280;21993;42.672;23.296;2023-01-28T01:30:03;94144.09;;;2.87;71.92
35892;BME280;21993;42.672;23.296;2023-01-28T01:32:30;94139.72;;;2.75;72.20
35892;BME280;21993;42.672;23.296;2023-01-28T01:34:56;94138.38;;;2.69;72.25
35892;BME280;21993;42.672;23.296;2023-01-28T01:37:21;94143.53;;;2.57;72.28
35892;BME280;21993;42.672;23.296;2023-01-28T01:39:47;94138.88;;;2.62;72.43
35892;BME280;21993;42.672;23.296;2023-01-28T01:42:13;94151.19;;;2.58;72.01
35892;BME280;21993;42.672;23.296;2023-01-28T01:47:18;94138.88;;;2.74;71.91
35892;BME280;21993;42.672;23.296;2023-01-28T01:49:47;94146.66;;;2.74;71.72
35892;BME280;21993;42.672;23.296;2023-01-28T01:52:15;94140.09;;;2.69;72.49
35892;BME280;21993;42.672;23.296;2023-01-28T01:54:45;94139.41;;;2.79;72.66
35892;BME280;21993;42.672;23.296;2023-01-28T01:57:13;94139.94;;;2.72;72.21
35892;BME280;21993;42.672;23.296;2023-01-28T01:59:41;94141.78;;;2.70;73.25
35892;BME280;21993;42.672;23.296;2023-01-28T02:02:09;94141.03;;;2.68;73.79
35892;BME280;21993;42.672;23.296;2023-01-28T02:04:41;94151.13;;;2.72;73.38
35892;BME280;21993;42.672;23.296;2023-01-28T02:07:09;94144.91;;;2.62;73.28
35892;BME280;21993;42.672;23.296;2023-01-28T02:09:36;94151.94;;;2.73;72.34
35892;BME280;21993;42.672;23.296;2023-01-28T02:12:39;94161.59;;;2.71;72.32
35892;BME280;21993;42.672;23.296;2023-01-28T02:15:01;94158.25;;;2.56;73.10
35892;BME280;21993;42.672;23.296;2023-01-28T02:17:27;94158.13;;;2.58;73.29
35892;BME280;21993;42.672;23.296;2023-01-28T02:19:59;94163.75;;;2.64;72.47
35892;BME280;21993;42.672;23.296;2023-01-28T02:22:51;94161.06;;;2.53;72.51
35892;BME280;21993;42.672;23.296;2023-01-28T02:25:33;94162.28;;;2.60;72.83
35892;BME280;21993;42.672;23.296;2023-01-28T02:30:41;94160.22;;;2.65;72.46
35892;BME280;21993;42.672;23.296;2023-01-28T02:33:21;94168.06;;;2.51;72.75
35892;BME280;21993;42.672;23.296;2023-01-28T02:35:52;94159.06;;;2.57;73.15
35892;BME280;21993;42.672;23.296;2023-01-28T02:38:26;94156.06;;;2.50;72.80
35892;BME280;21993;42.672;23.296;2023-01-28T02:40:59;94158.47;;;2.66;73.25
35892;BME280;21993;42.672;23.296;2023-01-28T02:43:31;94169.53;;;2.68;72.53
35892;BME280;21993;42.672;23.296;2023-01-28T02:45:57;94156.09;;;2.75;72.07
35892;BME280;21993;42.672;23.296;2023-01-28T02:48:41;94169.53;;;2.68;72.85
35892;BME280;21993;42.672;23.296;2023-01-28T02:59:38;94162.31;;;2.73;71.78
35892;BME280;21993;42.672;23.296;2023-01-28T03:02:15;94158.56;;;2.64;71.48
35892;BME280;21993;42.672;23.296;2023-01-28T03:07:25;94180.34;;;2.62;72.05
35892;BME280;21993;42.672;23.296;2023-01-28T03:09:52;94169.97;;;2.62;72.12
35892;BME280;21993;42.672;23.296;2023-01-28T03:12:25;94170.28;;;2.70;71.31
35892;BME280;21993;42.672;23.296;2023-01-28T03:15:20;94174.72;;;2.68;71.68
35892;BME280;21993;42.672;23.296;2023-01-28T03:21:44;94178.25;;;2.54;72.10
35892;BME280;21993;42.672;23.296;2023-01-28T03:24:32;94173.56;;;2.59;71.74
35892;BME280;21993;42.672;23.296;2023-01-28T03:30:17;94182.94;;;2.62;72.30
35892;BME280;21993;42.672;23.296;2023-01-28T03:33:04;94181.22;;;2.48;72.38
35892;BME280;21993;42.672;23.296;2023-01-28T03:35:49;94179.50;;;2.61;72.36
35892;BME280;21993;42.672;23.296;2023-01-28T03:38:33;94176.50;;;2.67;71.81
35892;BME280;21993;42.672;23.296;2023-01-28T03:41:07;94171.84;;;2.72;72.57
35892;BME280;21993;42.672;23.296;2023-01-28T03:43:33;94184.38;;;2.66;71.69
35892;BME280;21993;42.672;23.296;2023-01-28T03:45:59;94182.72;;;2.65;72.17
35892;BME280;21993;42.672;23.296;2023-01-28T03:48:26;94181.38;;;2.72;71.19
35892;BME280;21993;42.672;23.296;2023-01-28T03:50:54;94186.63;;;2.58;71.64
35892;BME280;21993;42.672;23.296;2023-01-28T03:53:21;94186.97;;;2.66;72.07
35892;BME280;21993;42.672;23.296;2023-01-28T03:55:48;94180.22;;;2.63;71.50
35892;BME280;21993;42.672;23.296;2023-01-28T03:58:15;94190.88;;;2.59;71.89
35892;BME280;21993;42.672;23.296;2023-01-28T04:00:41;94191.63;;;2.61;71.70
35892;BME280;21993;42.672;23.296;2023-01-28T04:03:12;94190.38;;;2.66;71.44
35892;BME280;21993;42.672;23.296;2023-01-28T04:05:58;94196.59;;;2.64;71.62
35892;BME280;21993;42.672;23.296;2023-01-28T04:08:24;94192.97;;;2.66;71.67
35892;BME280;21993;42.672;23.296;2023-01-28T04:10:50;94195.41;;;2.42;71.88
35892;BME280;21993;42.672;23.296;2023-01-28T04:13:16;94201.50;;;2.41;72.42
35892;BME280;21993;42.672;23.296;2023-01-28T04:15:43;94202.88;;;2.47;71.92
35892;BME280;21993;42.672;23.296;2023-01-28T04:18:09;94209.19;;;2.43;72.19
35892;BME280;21993;42.672;23.296;2023-01-28T04:20:35;94203.94;;;2.44;72.01
35892;BME280;21993;42.672;23.296;2023-01-28T04:23:01;94202.66;;;2.37;72.17
35892;BME280;21993;42.672;23.296;2023-01-28T04:25:26;94207.41;;;2.43;71.49
35892;BME280;21993;42.672;23.296;2023-01-28T04:27:52;94214.28;;;2.44;71.75
35892;BME280;21993;42.672;23.296;2023-01-28T04:30:18;94216.91;;;2.57;72.15
35892;BME280;21993;42.672;23.296;2023-01-28T04:32:45;94223.97;;;2.68;71.83
35892;BME280;21993;42.672;23.296;2023-01-28T04:35:11;94217.44;;;2.35;72.49
35892;BME280;21993;42.672;23.296;2023-01-28T04:37:39;94223.38;;;2.37;72.88
35892;BME280;21993;42.672;23.296;2023-01-28T04:40:06;94219.25;;;2.47;73.05
35892;BME280;21993;42.672;23.296;2023-01-28T04:42:31;94228.06;;;2.45;72.66
35892;BME280;21993;42.672;23.296;2023-01-28T04:44:57;94234.19;;;2.44;73.03
35892;BME280;21993;42.672;23.296;2023-01-28T04:47:22;94229.63;;;2.47;72.70
35892;BME280;21993;42.672;23.296;2023-01-28T04:49:47;94239.34;;;2.44;72.83
35892;BME280;21993;42.672;23.296;2023-01-28T04:52:13;94237.84;;;2.27;73.41
35892;BME280;21993;42.672;23.296;2023-01-28T04:54:38;94240.97;;;2.32;73.43
35892;BME280;21993;42.672;23.296;2023-01-28T04:57:04;94243.19;;;2.24;73.55
35892;BME280;21993;42.672;23.296;2023-01-28T04:59:29;94242.41;;;2.09;74.50
35892;BME280;21993;42.672;23.296;2023-01-28T05:01:54;94236.84;;;2.15;74.33
35892;BME280;21993;42.672;23.296;2023-01-28T05:04:20;94247.84;;;2.19;74.80
35892;BME280;21993;42.672;23.296;2023-01-28T05:06:45;94247.44;;;2.25;74.24
35892;BME280;21993;42.672;23.296;2023-01-28T05:09:10;94254.22;;;2.28;74.18
35892;BME280;21993;42.672;23.296;2023-01-28T05:11:36;94250.13;;;2.23;73.60
35892;BME280;21993;42.672;23.296;2023-01-28T05:14:02;94261.97;;;2.28;73.63
35892;BME280;21993;42.672;23.296;2023-01-28T05:16:27;94258.47;;;2.29;73.89
35892;BME280;21993;42.672;23.296;2023-01-28T05:18:53;94263.44;;;2.32;74.57
35892;BME280;21993;42.672;23.296;2023-01-28T05:21:18;94267.88;;;2.30;73.43
35892;BME280;21993;42.672;23.296;2023-01-28T05:23:43;94257.06;;;2.23;73.11
35892;BME280;21993;42.672;23.296;2023-01-28T05:26:09;94268.75;;;2.16;73.36
35892;BME280;21993;42.672;23.296;2023-01-28T05:28:35;94265.19;;;2.31;72.83
35892;BME280;21993;42.672;23.296;2023-01-28T05:31:05;94267.41;;;2.37;71.95
35892;BME280;21993;42.672;23.296;2023-01-28T05:33:31;94268.50;;;2.33;72.16
35892;BME280;21993;42.672;23.296;2023-01-28T05:35:57;94269.00;;;2.25;72.78
35892;BME280;21993;42.672;23.296;2023-01-28T05:38:22;94273.50;;;2.36;72.55
35892;BME280;21993;42.672;23.296;2023-01-28T05:40:47;94281.06;;;2.39;71.97
35892;BME280;21993;42.672;23.296;2023-01-28T05:43:13;94273.09;;;2.42;72.21
35892;BME280;21993;42.672;23.296;2023-01-28T05:45:39;94283.88;;;2.36;71.73
35892;BME280;21993;42.672;23.296;2023-01-28T05:48:05;94276.00;;;2.38;72.16
35892;BME280;21993;42.672;23.296;2023-01-28T05:50:30;94282.28;;;2.34;71.64
35892;BME280;21993;42.672;23.296;2023-01-28T05:52:55;94282.84;;;2.39;72.15
35892;BME280;21993;42.672;23.296;2023-01-28T05:55:21;94282.28;;;2.34;72.02
35892;BME280;21993;42.672;23.296;2023-01-28T05:57:47;94293.41;;;2.36;72.00
35892;BME280;21993;42.672;23.296;2023-01-28T06:00:13;94284.97;;;2.32;72.00
35892;BME280;21993;42.672;23.296;2023-01-28T06:02:40;94284.25;;;2.30;71.96
35892;BME280;21993;42.672;23.296;2023-01-28T06:05:06;94293.69;;;2.17;72.11
35892;BME280;21993;42.672;23.296;2023-01-28T06:07:31;94296.75;;;2.23;71.35
35892;BME280;21993;42.672;23.296;2023-01-28T06:09:57;94304.31;;;2.26;72.47
35892;BME280;21993;42.672;23.296;2023-01-28T06:12:22;94306.47;;;2.20;72.40
35892;BME280;21993;42.672;23.296;2023-01-28T06:14:47;94310.00;;;2.19;73.05
35892;BME280;21993;42.672;23.296;2023-01-28T06:17:13;94309.50;;;2.26;72.38
35892;BME280;21993;42.672;23.296;2023-01-28T06:19:38;94313.66;;;2.29;72.25
35892;BME280;21993;42.672;23.296;2023-01-28T06:22:04;94326.41;;;2.32;71.30
35892;BME280;21993;42.672;23.296;2023-01-28T06:24:29;94328.53;;;2.40;71.30
35892;BME280;21993;42.672;23.296;2023-01-28T06:26:54;94327.78;;;2.38;72.63
35892;BME280;21993;42.672;23.296;2023-01-28T06:29:20;94328.31;;;2.43;71.64
35892;BME280;21993;42.672;23.296;2023-01-28T06:31:45;94328.97;;;2.46;71.95
35892;BME280;21993;42.672;23.296;2023-01-28T06:34:11;94334.88;;;2.48;71.75
35892;BME280;21993;42.672;23.296;2023-01-28T06:36:37;94332.28;;;2.48;71.26
35892;BME280;21993;42.672;23.296;2023-01-28T06:39:03;94345.09;;;2.37;71.24
35892;BME280;21993;42.672;23.296;2023-01-28T06:41:29;94348.16;;;2.30;71.82
35892;BME280;21993;42.672;23.296;2023-01-28T06:43:54;94353.31;;;2.44;71.18
35892;BME280;21993;42.672;23.296;2023-01-28T06:46:20;94356.16;;;2.53;71.24
35892;BME280;21993;42.672;23.296;2023-01-28T06:48:45;94353.56;;;2.53;71.71
35892;BME280;21993;42.672;23.296;2023-01-28T06:51:11;94362.75;;;2.45;71.74
35892;BME280;21993;42.672;23.296;2023-01-28T06:53:36;94361.81;;;2.46;71.89
35892;BME280;21993;42.672;23.296;2023-01-28T06:56:01;94373.59;;;2.37;71.89
35892;BME280;21993;42.672;23.296;2023-01-28T06:58:27;94374.22;;;2.41;71.30
35892;BME280;21993;42.672;23.296;2023-01-28T07:00:52;94372.66;;;2.24;72.05
35892;BME280;21993;42.672;23.296;2023-01-28T07:03:18;94376.44;;;2.33;71.84
35892;BME280;21993;42.672;23.296;2023-01-28T07:05:43;94369.13;;;2.39;71.49
35892;BME280;21993;42.672;23.296;2023-01-28T07:08:09;94388.28;;;2.37;71.73
35892;BME280;21993;42.672;23.296;2023-01-28T07:10:34;94386.06;;;2.45;72.16
35892;BME280;21993;42.672;23.296;2023-01-28T07:13:00;94387.16;;;2.55;70.82
35892;BME280;21993;42.672;23.296;2023-01-28T07:15:26;94393.19;;;2.68;71.01
35892;BME280;21993;42.672;23.296;2023-01-28T07:17:51;94390.22;;;2.47;71.08
35892;BME280;21993;42.672;23.296;2023-01-28T07:20:17;94390.59;;;2.41;71.49
35892;BME280;21993;42.672;23.296;2023-01-28T07:22:44;94400.00;;;2.57;71.19
35892;BME280;21993;42.672;23.296;2023-01-28T07:25:11;94399.25;;;2.54;70.28
35892;BME280;21993;42.672;23.296;2023-01-28T07:27:36;94401.50;;;2.46;70.82
35892;BME280;21993;42.672;23.296;2023-01-28T07:30:03;94407.50;;;2.47;71.12
35892;BME280;21993;42.672;23.296;2023-01-28T07:32:28;94403.53;;;2.41;71.53
35892;BME280;21993;42.672;23.296;2023-01-28T07:34:54;94406.03;;;2.43;71.63
35892;BME280;21993;42.672;23.296;2023-01-28T07:37:20;94411.13;;;2.44;72.24
35892;BME280;21993;42.672;23.296;2023-01-28T07:39:45;94416.56;;;2.54;71.55
35892;BME280;21993;42.672;23.296;2023-01-28T07:42:10;94425.91;;;2.42;71.29
35892;BME280;21993;42.672;23.296;2023-01-28T07:44:36;94411.97;;;2.45;71.20
35892;BME280;21993;42.672;23.296;2023-01-28T07:47:03;94417.31;;;2.42;71.86
35892;BME280;21993;42.672;23.296;2023-01-28T07:49:29;94426.94;;;2.54;71.19
35892;BME280;21993;42.672;23.296;2023-01-28T07:51:54;94423.31;;;2.57;71.37
35892;BME280;21993;42.672;23.296;2023-01-28T07:54:20;94430.63;;;2.50;71.13
35892;BME280;21993;42.672;23.296;2023-01-28T07:56:45;94425.63;;;2.61;70.83
35892;BME280;21993;42.672;23.296;2023-01-28T07:59:10;94427.41;;;2.61;71.23
35892;BME280;21993;42.672;23.296;2023-01-28T08:01:36;94427.56;;;2.58;70.59
35892;BME280;21993;42.672;23.296;2023-01-28T08:04:01;94431.44;;;2.65;70.70
35892;BME280;21993;42.672;23.296;2023-01-28T08:06:27;94432.91;;;2.69;70.53
35892;BME280;21993;42.672;23.296;2023-01-28T08:08:53;94433.31;;;2.63;70.51
35892;BME280;21993;42.672;23.296;2023-01-28T08:11:19;94438.50;;;2.63;70.98
35892;BME280;21993;42.672;23.296;2023-01-28T08:13:45;94438.59;;;2.61;70.49
35892;BME280;21993;42.672;23.296;2023-01-28T08:16:10;94435.22;;;2.73;70.53
35892;BME280;21993;42.672;23.296;2023-01-28T08:18:36;94439.38;;;2.76;70.59
35892;BME280;21993;42.672;23.296;2023-01-28T08:21:01;94438.84;;;2.71;69.89
35892;BME280;21993;42.672;23.296;2023-01-28T08:23:27;94441.19;;;2.61;70.16
35892;BME280;21993;42.672;23.296;2023-01-28T08:25:53;94443.78;;;2.61;70.61
35892;BME280;21993;42.672;23.296;2023-01-28T08:28:20;94455.78;;;2.62;70.50
35892;BME280;21993;42.672;23.296;2023-01-28T08:30:46;94451.81;;;2.71;70.08
35892;BME280;21993;42.672;23.296;2023-01-28T08:33:13;94455.28;;;2.84;69.73
35892;BME280;21993;42.672;23.296;2023-01-28T08:35:39;94452.41;;;2.89;70.27
35892;BME280;21993;42.672;23.296;2023-01-28T08:38:05;94447.84;;;2.92;69.92
35892;BME280;21993;42.672;23.296;2023-01-28T08:40:32;94446.28;;;2.90;69.65
35892;BME280;21993;42.672;23.296;2023-01-28T08:42:58;94451.28;;;2.93;70.16
35892;BME280;21993;42.672;23.296;2023-01-28T08:45:25;94448.59;;;2.94;69.35
35892;BME280;21993;42.672;23.296;2023-01-28T08:48:02;94444.63;;;2.89;69.46
35892;BME280;21993;42.672;23.296;2023-01-28T08:50:31;94456.28;;;2.96;69.45
35892;BME280;21993;42.672;23.296;2023-01-28T08:53:00;94452.81;;;3.09;69.31
35892;BME280;21993;42.672;23.296;2023-01-28T08:55:27;94448.06;;;3.16;68.49
35892;BME280;21993;42.672;23.296;2023-01-28T08:57:53;94448.75;;;3.05;69.44
35892;BME280;21993;42.672;23.296;2023-01-28T09:00:19;94462.09;;;2.99;69.60
35892;BME280;21993;42.672;23.296;2023-01-28T09:02:45;94447.81;;;3.06;69.02
35892;BME280;21993;42.672;23.296;2023-01-28T09:05:11;94455.41;;;3.09;69.66
35892;BME280;21993;42.672;23.296;2023-01-28T09:07:37;94452.03;;;3.22;69.39
35892;BME280;21993;42.672;23.296;2023-01-28T09:10:04;94457.88;;;3.11;69.26
35892;BME280;21993;42.672;23.296;2023-01-28T09:12:31;94461.50;;;3.08;69.49
35892;BME280;21993;42.672;23.296;2023-01-28T09:14:56;94463.53;;;3.18;69.10
35892;BME280;21993;42.672;23.296;2023-01-28T09:17:22;94454.53;;;3.23;69.12
35892;BME280;21993;42.672;23.296;2023-01-28T09:19:48;94454.88;;;3.04;69.43
35892;BME280;21993;42.672;23.296;2023-01-28T09:22:13;94464.44;;;3.17;68.79
35892;BME280;21993;42.672;23.296;2023-01-28T09:24:39;94464.09;;;3.35;68.88
35892;BME280;21993;42.672;23.296;2023-01-28T09:27:04;94466.91;;;3.32;68.74
35892;BME280;21993;42.672;23.296;2023-01-28T09:29:30;94455.84;;;3.16;68.71
35892;BME280;21993;42.672;23.296;2023-01-28T09:31:55;94452.06;;;3.34;68.38
35892;BME280;21993;42.672;23.296;2023-01-28T09:34:20;94451.69;;;3.41;68.38
35892;BME280;21993;42.672;23.296;2023-01-28T09:36:46;94460.09;;;3.44;69.47
35892;BME280;21993;42.672;23.296;2023-01-28T09:39:11;94450.13;;;3.38;68.75
35892;BME280;21993;42.672;23.296;2023-01-28T09:46:49;94457.00;;;3.52;69.26
35892;BME280;21993;42.672;23.296;2023-01-28T09:49:33;94451.63;;;3.67;68.66
35892;BME280;21993;42.672;23.296;2023-01-28T09:51:59;94448.75;;;3.72;68.66
35892;BME280;21993;42.672;23.296;2023-01-28T09:54:43;94453.91;;;3.59;67.86
35892;BME280;21993;42.672;23.296;2023-01-28T09:57:29;94459.06;;;3.47;68.68
35892;BME280;21993;42.672;23.296;2023-01-28T09:59:58;94458.16;;;3.60;68.16
35892;BME280;21993;42.672;23.296;2023-01-28T10:10:11;94459.13;;;3.32;68.94
35892;BME280;21993;42.672;23.296;2023-01-28T10:18:12;94460.34;;;3.54;68.63
35892;BME280;21993;42.672;23.296;2023-01-28T10:21:10;94454.34;;;3.53;69.50
35892;BME280;21993;42.672;23.296;2023-01-28T10:23:47;94447.72;;;3.62;69.40
35892;BME280;21993;42.672;23.296;2023-01-28T10:26:22;94447.88;;;3.59;69.88
35892;BME280;21993;42.672;23.296;2023-01-28T10:29:02;94444.56;;;3.57;69.48
35892;BME280;21993;42.672;23.296;2023-01-28T10:31:34;94444.06;;;3.64;70.56
35892;BME280;21993;42.672;23.296;2023-01-28T10:34:01;94441.06;;;3.71;70.01
35892;BME280;21993;42.672;23.296;2023-01-28T10:36:28;94451.13;;;3.62;69.25
35892;BME280;21993;42.672;23.296;2023-01-28T10:38:54;94438.06;;;3.64;70.12
35892;BME280;21993;42.672;23.296;2023-01-28T10:41:21;94448.88;;;3.71;69.35
35892;BME280;21993;42.672;23.296;2023-01-28T10:43:47;94426.72;;;3.65;69.57
35892;BME280;21993;42.672;23.296;2023-01-28T10:46:27;94442.19;;;3.66;69.90
35892;BME280;21993;42.672;23.296;2023-01-28T10:49:13;94447.09;;;3.71;69.59
35892;BME280;21993;42.672;23.296;2023-01-28T10:51:41;94444.13;;;3.50;69.29
35892;BME280;21993;42.672;23.296;2023-01-28T10:54:27;94440.81;;;3.48;68.54
35892;BME280;21993;42.672;23.296;2023-01-28T10:56:57;94445.44;;;3.70;69.53
35892;BME280;21993;42.672;23.296;2023-01-28T10:59:34;94444.50;;;3.71;69.75
35892;BME280;21993;42.672;23.296;2023-01-28T11:04:45;94439.91;;;3.62;69.55
35892;BME280;21993;42.672;23.296;2023-01-28T11:07:17;94445.19;;;3.60;69.56
35892;BME280;21993;42.672;23.296;2023-01-28T11:09:47;94444.06;;;3.64;69.56
35892;BME280;21993;42.672;23.296;2023-01-28T11:12:27;94444.81;;;3.79;69.31
35892;BME280;21993;42.672;23.296;2023-01-28T11:14:56;94446.69;;;3.90;69.70
35892;BME280;21993;42.672;23.296;2023-01-28T11:17:24;94451.47;;;3.83;68.77
35892;BME280;21993;42.672;23.296;2023-01-28T11:19:52;94440.97;;;3.85;68.77
35892;BME280;21993;42.672;23.296;2023-01-28T11:22:40;94439.63;;;3.92;67.93
35892;BME280;21993;42.672;23.296;2023-01-28T11:25:17;94438.63;;;4.07;67.64
35892;BME280;21993;42.672;23.296;2023-01-28T11:27:47;94434.03;;;3.98;67.56
35892;BME280;21993;42.672;23.296;2023-01-28T11:32:56;94439.31;;;3.84;67.06
35892;BME280;21993;42.672;23.296;2023-01-28T11:35:29;94438.81;;;3.91;67.23
35892;BME280;21993;42.672;23.296;2023-01-28T11:37:59;94431.97;;;3.90;67.97
35892;BME280;21993;42.672;23.296;2023-01-28T11:40:25;94440.03;;;3.86;67.85
35892;BME280;21993;42.672;23.296;2023-01-28T11:42:52;94434.00;;;3.85;67.51
35892;BME280;21993;42.672;23.296;2023-01-28T11:45:23;94423.63;;;3.73;68.15
35892;BME280;21993;42.672;23.296;2023-01-28T11:50:41;94421.75;;;3.75;67.43
35892;BME280;21993;42.672;23.296;2023-01-28T11:56:02;94422.69;;;3.74;67.75
35892;BME280;21993;42.672;23.296;2023-01-28T12:06:34;94428.84;;;4.11;67.75
35892;BME280;21993;42.672;23.296;2023-01-28T12:20:32;94430.91;;;4.18;66.97
35892;BME280;21993;42.672;23.296;2023-01-28T12:28:33;94436.13;;;4.18;66.39
35892;BME280;21993;42.672;23.296;2023-01-28T12:39:51;94444.00;;;4.17;66.05
35892;BME280;21993;42.672;23.296;2023-01-28T12:42:31;94441.13;;;4.21;66.10
35892;BME280;21993;42.672;23.296;2023-01-28T12:45:11;94438.22;;;4.13;66.00
35892;BME280;21993;42.672;23.296;2023-01-28T12:47:38;94441.81;;;4.11;67.70
35892;BME280;21993;42.672;23.296;2023-01-28T12:50:26;94452.97;;;4.13;66.18
35892;BME280;21993;42.672;23.296;2023-01-28T12:53:18;94448.59;;;4.26;67.05
35892;BME280;21993;42.672;23.296;2023-01-28T12:55:48;94445.16;;;4.26;67.16
35892;BME280;21993;42.672;23.296;2023-01-28T12:58:23;94454.19;;;4.33;67.30
35892;BME280;21993;42.672;23.296;2023-01-28T13:00:55;94457.53;;;4.22;67.49
35892;BME280;21993;42.672;23.296;2023-01-28T13:03:33;94463.97;;;4.16;67.26
35892;BME280;21993;42.672;23.296;2023-01-28T13:06:39;94452.22;;;4.23;67.15
35892;BME280;21993;42.672;23.296;2023-01-28T13:09:21;94469.06;;;4.43;66.49
35892;BME280;21993;42.672;23.296;2023-01-28T13:11:50;94473.84;;;4.49;67.34
35892;BME280;21993;42.672;23.296;2023-01-28T13:14:17;94462.31;;;4.41;66.85
35892;BME280;21993;42.672;23.296;2023-01-28T13:16:44;94468.31;;;4.41;66.21
35892;BME280;21993;42.672;23.296;2023-01-28T13:21:44;94470.41;;;4.36;66.32
35892;BME280;21993;42.672;23.296;2023-01-28T13:26:44;94484.84;;;4.40;67.28
35892;BME280;21993;42.672;23.296;2023-01-28T13:31:40;94478.31;;;4.47;66.84
35892;BME280;21993;42.672;23.296;2023-01-28T13:34:07;94475.59;;;4.49;67.01
35892;BME280;21993;42.672;23.296;2023-01-28T13:36:43;94488.28;;;4.66;67.72
35892;BME280;21993;42.672;23.296;2023-01-28T13:41:47;94491.50;;;4.44;67.40
35892;BME280;21993;42.672;23.296;2023-01-28T13:44:32;94486.41;;;4.43;67.81
35892;BME280;21993;42.672;23.296;2023-01-28T13:47:12;94493.91;;;4.47;67.20
35892;BME280;21993;42.672;23.296;2023-01-28T13:49:41;94491.72;;;4.41;67.57
35892;BME280;21993;42.672;23.296;2023-01-28T13:58:08;94498.38;;;4.58;66.42
35892;BME280;21993;42.672;23.296;2023-01-28T14:00:58;94504.19;;;4.49;66.05
35892;BME280;21993;42.672;23.296;2023-01-28T14:06:52;94511.28;;;4.47;66.41
35892;BME280;21993;42.672;23.296;2023-01-28T14:20:26;94522.75;;;4.05;67.67
35892;BME280;21993;42.672;23.296;2023-01-28T14:23:03;94522.13;;;4.01;67.91
35892;BME280;21993;42.672;23.296;2023-01-28T14:25:39;94525.88;;;3.97;68.06
35892;BME280;21993;42.672;23.296;2023-01-28T14:28:18;94530.97;;;4.11;67.99
35892;BME280;21993;42.672;23.296;2023-01-28T14:30:53;94533.88;;;4.07;67.64
35892;BME280;21993;42.672;23.296;2023-01-28T14:33:22;94533.56;;;4.11;66.71
35892;BME280;21993;42.672;23.296;2023-01-28T14:35:48;94531.56;;;4.02;67.14
35892;BME280;21993;42.672;23.296;2023-01-28T14:38:17;94534.72;;;4.20;66.46
35892;BME280;21993;42.672;23.296;2023-01-28T14:40:48;94533.78;;;4.08;66.81
35892;BME280;21993;42.672;23.296;2023-01-28T14:43:17;94538.84;;;4.10;66.58
35892;BME280;21993;42.672;23.296;2023-01-28T14:48:16;94544.28;;;4.19;66.56
35892;BME280;21993;42.672;23.296;2023-01-28T15:01:43;94554.00;;;4.03;67.08
35892;BME280;21993;42.672;23.296;2023-01-28T15:04:30;94555.97;;;4.00;66.98
35892;BME280;21993;42.672;23.296;2023-01-28T15:07:00;94565.41;;;3.88;67.45
35892;BME280;21993;42.672;23.296;2023-01-28T15:09:26;94565.31;;;3.89;67.59
35892;BME280;21993;42.672;23.296;2023-01-28T15:11:55;94556.78;;;3.87;67.15
35892;BME280;21993;42.672;23.296;2023-01-28T15:14:28;94554.97;;;3.75;67.27
35892;BME280;21993;42.672;23.296;2023-01-28T15:16:54;94563.97;;;3.70;67.54
35892;BME280;21993;42.672;23.296;2023-01-28T15:19:26;94564.84;;;3.70;67.16
35892;BME280;21993;42.672;23.296;2023-01-28T15:21:58;94572.06;;;3.65;67.18